createdAt,value
2018-02-19T00:00:30.399Z,90.50
2018-02-19T00:02:57.899Z,89.50
2018-02-19T00:05:25.467Z,83.30
2018-02-19T00:07:52.960Z,82.13
2018-02-19T00:10:21.222Z,80.40
2018-02-19T00:12:48.708Z,78.43
2018-02-19T00:15:16.220Z,72.57
2018-02-19T00:17:43.903Z,86.23
2018-02-19T00:20:11.437Z,78.57
2018-02-19T00:22:38.929Z,77.30
2018-02-19T00:25:06.448Z,80.20
2018-02-19T00:27:33.940Z,79.30
2018-02-19T00:30:01.460Z,80.47
2018-02-19T00:32:28.993Z,92.27
2018-02-19T00:34:56.554Z,83.90
2018-02-19T00:37:24.060Z,84.97
2018-02-19T00:39:55.027Z,87.60
2018-02-19T00:42:22.511Z,86.70
2018-02-19T00:44:50.027Z,101.30
2018-02-19T00:47:17.520Z,97.03
2018-02-19T00:49:45.067Z,87.37
2018-02-19T00:52:12.559Z,91.20
2018-02-19T00:54:40.104Z,88.20
2018-02-19T00:57:07.619Z,95.13
2018-02-19T00:59:35.247Z,91.53
2018-02-19T01:02:02.765Z,87.37
2018-02-19T01:04:30.408Z,84.63
2018-02-19T01:06:57.923Z,90.93
2018-02-19T01:09:25.439Z,97.47
2018-02-19T01:11:52.957Z,84.93
2018-02-19T01:14:20.489Z,90.87
2018-02-19T01:16:52.768Z,96.40
2018-02-19T01:19:22.268Z,92.90
2018-02-19T01:21:51.798Z,88.07
2018-02-19T01:24:19.356Z,84.37
2018-02-19T01:26:46.875Z,96.93
2018-02-19T01:29:14.359Z,96.43
2018-02-19T01:31:41.889Z,87.53
2018-02-19T01:34:09.463Z,88.63
2018-02-19T01:36:37.327Z,85.13
2018-02-19T01:39:04.861Z,78.50
2018-02-19T01:41:32.684Z,81.60
2018-02-19T01:44:00.180Z,91.40
2018-02-19T01:46:27.694Z,76.73
2018-02-19T01:48:55.212Z,75.63
2018-02-19T01:51:22.731Z,79.83
2018-02-19T01:53:50.276Z,74.93
2018-02-19T01:56:17.792Z,80.47
2018-02-19T01:58:46.268Z,75.67
2018-02-19T02:01:13.828Z,66.83
2018-02-19T02:03:41.315Z,76.83
2018-02-19T02:06:08.835Z,70.60
2018-02-19T02:08:36.419Z,69.43
2018-02-19T02:11:03.960Z,74.53
2018-02-19T02:13:31.538Z,69.47
2018-02-19T02:15:59.051Z,78.27
2018-02-19T02:18:26.535Z,74.13
2018-02-19T02:20:54.048Z,74.07
2018-02-19T02:23:21.544Z,70.10
2018-02-19T02:25:49.076Z,76.43
2018-02-19T02:28:16.567Z,72.83
2018-02-19T02:30:44.064Z,72.70
2018-02-19T02:33:11.592Z,69.53
2018-02-19T02:35:39.096Z,78.83
2018-02-19T02:38:06.618Z,77.87
2018-02-19T02:40:34.107Z,78.77
2018-02-19T02:43:01.648Z,85.50
2018-02-19T02:45:29.913Z,76.00
2018-02-19T02:47:58.406Z,77.03
2018-02-19T02:50:25.911Z,76.87
2018-02-19T02:52:53.439Z,82.70
2018-02-19T02:55:21.001Z,76.00
2018-02-19T02:57:48.518Z,71.53
2018-02-19T03:00:16.092Z,81.97
2018-02-19T03:02:43.602Z,81.40
2018-02-19T03:05:11.088Z,77.30
2018-02-19T03:07:38.606Z,79.27
2018-02-19T03:10:06.106Z,74.67
2018-02-19T03:12:33.619Z,72.77
2018-02-19T03:15:01.115Z,73.17
2018-02-19T03:17:28.668Z,76.67
2018-02-19T03:19:56.167Z,80.07
2018-02-19T03:22:23.786Z,76.57
2018-02-19T03:24:51.280Z,77.00
2018-02-19T03:27:18.829Z,91.00
2018-02-19T03:29:46.328Z,88.47
2018-02-19T03:32:13.851Z,93.57
2018-02-19T03:34:41.366Z,89.13
2018-02-19T03:37:08.880Z,109.17
2018-02-19T03:39:36.425Z,109.13
2018-02-19T03:42:03.943Z,104.60
2018-02-19T03:44:32.351Z,109.10
2018-02-19T03:46:59.852Z,98.23
2018-02-19T03:49:27.367Z,107.73
2018-02-19T03:51:54.960Z,109.10
2018-02-19T03:54:22.479Z,123.80
2018-02-19T03:56:49.972Z,124.43
2018-02-19T03:59:17.487Z,111.90
2018-02-19T04:01:44.992Z,127.80
2018-02-19T04:04:12.499Z,113.13
2018-02-19T04:06:41.042Z,111.10
2018-02-19T04:09:08.573Z,104.03
2018-02-19T04:11:36.051Z,95.10
2018-02-19T04:14:03.555Z,88.97
2018-02-19T04:16:31.061Z,93.97
2018-02-19T04:18:58.570Z,89.50
2018-02-19T04:21:26.084Z,92.47
2018-02-19T04:23:53.620Z,83.37
2018-02-19T04:26:21.140Z,84.37
2018-02-19T04:28:48.647Z,81.53
2018-02-19T04:31:16.159Z,93.90
2018-02-19T04:33:43.687Z,82.03
2018-02-19T04:36:11.182Z,86.80
2018-02-19T04:38:38.687Z,89.43
2018-02-19T04:41:06.180Z,86.53
2018-02-19T04:43:34.723Z,91.93
2018-02-19T04:46:06.656Z,89.57
2018-02-19T04:48:34.170Z,89.73
2018-02-19T04:51:01.663Z,86.67
2018-02-19T04:53:29.196Z,82.87
2018-02-19T04:55:56.679Z,88.70
2018-02-19T04:58:24.216Z,89.60
2018-02-19T05:00:51.723Z,77.43
2018-02-19T05:03:19.211Z,79.97
2018-02-19T05:05:46.752Z,83.50
2018-02-19T05:08:14.239Z,84.67
2018-02-19T05:10:41.752Z,84.47
2018-02-19T05:13:09.267Z,81.87
2018-02-19T05:15:37.999Z,82.83
2018-02-19T05:18:05.486Z,82.93
2018-02-19T05:20:33.004Z,87.57
2018-02-19T05:23:00.892Z,78.73
2018-02-19T05:25:28.755Z,83.67
2018-02-19T05:27:56.249Z,88.53
2018-02-19T05:30:23.779Z,85.63
2018-02-19T05:32:51.283Z,82.10
2018-02-19T05:35:18.795Z,86.00
2018-02-19T05:37:46.313Z,80.73
2018-02-19T05:40:13.838Z,84.83
2018-02-19T05:42:41.336Z,91.13
2018-02-19T05:45:08.885Z,78.87
2018-02-19T05:47:36.387Z,96.10
2018-02-19T05:50:03.988Z,81.90
2018-02-19T05:52:32.095Z,95.70
2018-02-19T05:54:59.630Z,85.90
2018-02-19T05:57:27.115Z,90.83
2018-02-19T05:59:54.653Z,99.67
2018-02-19T06:02:22.151Z,95.33
2018-02-19T06:04:49.673Z,88.70
2018-02-19T06:07:17.155Z,89.63
2018-02-19T06:09:44.674Z,87.23
2018-02-19T06:12:12.158Z,89.60
2018-02-19T06:14:39.684Z,84.80
2018-02-19T06:17:07.200Z,91.73
2018-02-19T06:19:34.705Z,87.77
2018-02-19T06:22:02.229Z,97.40
2018-02-19T06:24:29.727Z,96.93
2018-02-19T06:26:57.240Z,92.90
2018-02-19T06:29:24.732Z,98.40
2018-02-19T06:31:52.244Z,93.23
2018-02-19T06:34:19.737Z,96.87
2018-02-19T06:36:47.252Z,99.30
2018-02-19T06:39:14.744Z,102.87
2018-02-19T06:41:42.284Z,94.07
2018-02-19T06:44:09.776Z,92.50
2018-02-19T06:46:38.271Z,93.93
2018-02-19T06:49:05.772Z,90.60
2018-02-19T06:51:33.306Z,83.20
2018-02-19T06:54:00.812Z,89.03
2018-02-19T06:56:28.327Z,98.93
2018-02-19T06:58:55.823Z,88.63
2018-02-19T07:01:23.361Z,96.00
2018-02-19T07:03:50.848Z,91.97
2018-02-19T07:06:18.383Z,89.43
2018-02-19T07:08:45.872Z,89.97
2018-02-19T07:11:13.403Z,82.13
2018-02-19T07:13:40.990Z,87.90
2018-02-19T07:16:08.495Z,92.80
2018-02-19T07:18:36.003Z,92.90
2018-02-19T07:21:03.513Z,90.37
2018-02-19T07:23:31.077Z,90.83
2018-02-19T07:25:58.581Z,77.30
2018-02-19T07:28:26.095Z,92.63
2018-02-19T07:30:53.623Z,101.17
2018-02-19T07:33:21.156Z,94.83
2018-02-19T07:35:48.686Z,87.30
2018-02-19T07:38:16.224Z,85.90
2018-02-19T07:40:43.720Z,84.30
2018-02-19T07:43:11.231Z,85.43
2018-02-19T07:45:38.715Z,86.67
2018-02-19T07:48:06.330Z,81.97
2018-02-19T07:50:33.832Z,84.37
2018-02-19T07:53:01.356Z,76.50
2018-02-19T07:55:29.200Z,84.10
2018-02-19T07:57:56.733Z,83.50
2018-02-19T08:00:24.220Z,78.50
2018-02-19T08:02:51.736Z,83.97
2018-02-19T08:05:19.277Z,85.23
2018-02-19T08:07:46.795Z,78.07
2018-02-19T08:10:14.288Z,77.37
2018-02-19T08:12:41.825Z,71.40
2018-02-19T08:15:09.336Z,75.33
2018-02-19T08:17:36.868Z,71.40
2018-02-19T08:20:04.384Z,71.30
2018-02-19T08:22:31.995Z,75.87
2018-02-19T08:24:59.513Z,75.50
2018-02-19T08:27:27.012Z,77.53
2018-02-19T08:29:54.531Z,77.73
2018-02-19T08:32:22.015Z,81.37
2018-02-19T08:34:50.510Z,81.77
2018-02-19T08:37:18.027Z,82.10
2018-02-19T08:39:45.539Z,82.23
2018-02-19T08:42:13.040Z,82.93
2018-02-19T08:44:40.592Z,79.27
2018-02-19T08:47:08.109Z,72.27
2018-02-19T08:49:35.640Z,71.30
2018-02-19T08:52:03.136Z,74.73
2018-02-19T08:54:30.660Z,72.23
2018-02-19T08:56:58.156Z,74.03
2018-02-19T08:59:25.678Z,70.83
2018-02-19T09:01:53.159Z,73.47
2018-02-19T09:04:20.672Z,79.03
2018-02-19T09:06:48.190Z,72.57
2018-02-19T09:09:15.711Z,72.60
2018-02-19T09:11:43.199Z,75.17
2018-02-19T09:14:10.732Z,73.90
2018-02-19T09:16:38.229Z,67.73
2018-02-19T09:19:05.748Z,64.53
2018-02-19T09:21:33.340Z,68.83
2018-02-19T09:24:00.842Z,64.73
2018-02-19T09:26:28.373Z,65.10
2018-02-19T09:28:55.864Z,65.90
2018-02-19T09:31:23.370Z,66.70
2018-02-19T09:33:51.024Z,68.53
2018-02-19T09:36:18.690Z,70.53
2018-02-19T09:38:46.220Z,63.17
2018-02-19T09:44:17.008Z,68.97
2018-02-19T09:46:44.547Z,62.80
2018-02-19T09:49:12.035Z,64.50
2018-02-19T09:51:39.572Z,76.03
2018-02-19T09:54:07.068Z,65.07
2018-02-19T09:56:34.579Z,66.67
2018-02-19T09:59:02.063Z,65.47
2018-02-19T10:01:29.579Z,72.03
2018-02-19T10:03:57.188Z,65.30
2018-02-19T10:06:24.733Z,64.10
2018-02-19T10:08:52.248Z,64.73
2018-02-19T10:11:19.851Z,69.70
2018-02-19T10:13:47.335Z,66.70
2018-02-19T10:16:14.860Z,63.97
2018-02-19T10:18:42.348Z,67.00
2018-02-19T10:21:09.990Z,61.10
2018-02-19T10:23:37.491Z,64.33
2018-02-19T10:26:05.135Z,65.73
2018-02-19T10:28:32.671Z,61.97
2018-02-19T10:31:00.187Z,59.60
2018-02-19T10:33:27.679Z,64.83
2018-02-19T10:35:55.231Z,62.87
2018-02-19T10:38:22.921Z,63.80
2018-02-19T10:40:50.456Z,67.07
2018-02-19T10:43:17.962Z,71.10
2018-02-19T10:45:45.486Z,71.37
2018-02-19T10:48:13.042Z,59.03
2018-02-19T10:50:40.595Z,67.10
2018-02-19T10:53:08.176Z,63.50
2018-02-19T10:55:35.719Z,59.17
2018-02-19T10:58:03.235Z,63.20
2018-02-19T11:00:36.394Z,67.53
2018-02-19T11:03:03.931Z,69.33
2018-02-19T11:05:31.426Z,63.87
2018-02-19T11:07:58.940Z,76.63
2018-02-19T11:10:26.430Z,86.23
2018-02-19T11:12:53.957Z,82.37
2018-02-19T11:15:21.632Z,74.70
2018-02-19T11:17:49.148Z,73.73
2018-02-19T11:20:16.752Z,132.63
2018-02-19T11:22:44.312Z,112.80
2018-02-19T11:25:11.812Z,91.20
2018-02-19T11:27:39.331Z,134.90
2018-02-19T11:30:07.778Z,108.23
2018-02-19T11:32:35.288Z,96.10
2018-02-19T11:35:03.713Z,86.40
2018-02-19T11:37:31.264Z,66.50
2018-02-19T11:39:58.750Z,59.30
2018-02-19T11:42:26.316Z,54.30
2018-02-19T11:44:54.764Z,53.57
2018-02-19T11:47:22.279Z,57.97
2018-02-19T11:49:49.767Z,50.60
2018-02-19T11:52:17.279Z,51.47
2018-02-19T11:54:44.837Z,43.13
2018-02-19T11:57:12.347Z,44.33
2018-02-19T11:59:39.843Z,43.97
2018-02-19T12:02:07.411Z,48.77
2018-02-19T12:04:34.974Z,47.77
2018-02-19T12:07:02.470Z,41.00
2018-02-19T12:09:30.084Z,37.43
2018-02-19T12:11:57.581Z,38.90
2018-02-19T12:14:25.203Z,51.20
2018-02-19T12:16:52.737Z,41.77
2018-02-19T12:19:20.251Z,58.30
2018-02-19T12:21:47.780Z,49.93
2018-02-19T12:24:15.291Z,45.33
2018-02-19T12:26:42.784Z,53.10
2018-02-19T12:29:10.307Z,42.60
2018-02-19T12:31:37.860Z,40.17
2018-02-19T12:34:05.483Z,40.33
2018-02-19T12:36:32.975Z,43.20
2018-02-19T12:39:00.505Z,35.50
2018-02-19T12:41:28.060Z,36.43
2018-02-19T12:43:55.620Z,37.23
2018-02-19T12:46:23.112Z,40.10
2018-02-19T12:48:50.624Z,36.27
2018-02-19T12:51:18.118Z,37.47
2018-02-19T12:53:45.659Z,42.93
2018-02-19T12:56:13.151Z,41.10
2018-02-19T12:58:40.679Z,39.17
2018-02-19T13:01:08.171Z,43.57
2018-02-19T13:03:35.739Z,40.20
2018-02-19T13:06:03.247Z,37.07
2018-02-19T13:08:30.831Z,37.57
2018-02-19T13:10:58.367Z,42.70
2018-02-19T13:13:25.940Z,43.03
2018-02-19T13:15:53.440Z,37.73
2018-02-19T13:18:21.109Z,35.70
2018-02-19T13:20:48.591Z,33.27
2018-02-19T13:23:16.191Z,35.97
2018-02-19T13:25:43.691Z,38.33
2018-02-19T13:28:11.284Z,37.47
2018-02-19T13:30:38.801Z,42.90
2018-02-19T13:33:06.308Z,33.70
2018-02-19T13:35:33.855Z,36.13
2018-02-19T13:38:01.419Z,36.23
2018-02-19T13:40:28.980Z,33.10
2018-02-19T13:42:56.471Z,32.97
2018-02-19T13:45:23.987Z,34.20
2018-02-19T13:47:51.559Z,36.63
2018-02-19T13:50:19.966Z,36.13
2018-02-19T13:52:47.472Z,32.50
2018-02-19T13:55:14.983Z,35.03
2018-02-19T13:57:42.479Z,33.43
2018-02-19T14:00:09.996Z,31.17
2018-02-19T14:02:37.510Z,27.27
2018-02-19T14:05:05.091Z,28.30
2018-02-19T14:07:32.653Z,27.03
2018-02-19T14:10:00.180Z,30.20
2018-02-19T14:12:27.698Z,33.37
2018-02-19T14:14:55.228Z,30.80
2018-02-19T14:17:22.764Z,33.77
2018-02-19T14:19:50.300Z,36.20
2018-02-19T14:22:17.803Z,33.73
2018-02-19T14:24:45.311Z,27.20
2018-02-19T14:27:12.826Z,26.73
2018-02-19T14:29:40.479Z,24.53
2018-02-19T14:32:07.973Z,25.97
2018-02-19T14:34:35.497Z,22.73
2018-02-19T14:37:02.988Z,23.07
2018-02-19T14:39:30.620Z,24.13
2018-02-19T14:41:58.135Z,25.10
2018-02-19T14:44:25.646Z,24.00
2018-02-19T14:46:53.135Z,23.20
2018-02-19T14:49:20.667Z,25.67
2018-02-19T14:51:48.216Z,26.57
2018-02-19T14:54:15.747Z,24.93
2018-02-19T14:56:43.239Z,29.40
2018-02-19T14:59:10.769Z,25.07
2018-02-19T15:01:38.351Z,23.97
2018-02-19T15:04:05.913Z,23.53
2018-02-19T15:06:33.423Z,21.33
2018-02-19T15:09:00.916Z,24.30
2018-02-19T15:11:28.449Z,32.53
2018-02-19T15:13:56.047Z,34.37
2018-02-19T15:16:23.563Z,35.37
2018-02-19T15:21:14.126Z,36.43
2018-02-19T15:23:41.698Z,34.40
2018-02-19T15:26:09.354Z,33.70
2018-02-19T15:28:36.848Z,33.43
2018-02-19T15:31:04.364Z,34.63
2018-02-19T15:33:31.919Z,31.07
2018-02-19T15:35:59.480Z,28.90
2018-02-19T15:38:26.976Z,30.30
2018-02-19T15:40:54.496Z,29.53
2018-02-19T15:43:22.000Z,33.47
2018-02-19T15:45:49.512Z,36.07
2018-02-19T15:48:17.089Z,33.50
2018-02-19T15:50:44.735Z,32.63
2018-02-19T15:53:12.395Z,28.63
2018-02-19T15:55:39.898Z,30.20
2018-02-19T15:58:07.388Z,29.47
2018-02-19T16:00:34.896Z,29.43
2018-02-19T16:03:02.392Z,27.90
2018-02-19T16:05:29.911Z,31.20
2018-02-19T16:07:57.439Z,32.97
2018-02-19T16:10:24.960Z,40.17
2018-02-19T16:12:52.456Z,31.40
2018-02-19T16:15:19.980Z,35.57
2018-02-19T16:17:47.465Z,28.57
2018-02-19T16:20:15.036Z,36.17
2018-02-19T16:22:42.552Z,33.10
2018-02-19T16:25:10.052Z,32.30
2018-02-19T16:27:37.620Z,31.30
2018-02-19T16:30:05.111Z,30.10
2018-02-19T16:32:32.736Z,26.90
2018-02-19T16:35:00.292Z,33.72
2018-02-19T16:37:27.805Z,34.17
2018-02-19T16:39:55.311Z,34.73
2018-02-19T16:42:23.156Z,34.80
2018-02-19T16:44:50.679Z,38.67
2018-02-19T16:47:18.195Z,39.17
2018-02-19T16:49:45.776Z,41.57
2018-02-19T16:52:13.292Z,46.40
2018-02-19T16:54:40.785Z,40.07
2018-02-19T16:57:08.525Z,39.27
2018-02-19T16:59:36.014Z,39.30
2018-02-19T17:02:03.520Z,38.10
2018-02-19T17:04:31.007Z,42.27
2018-02-19T17:06:58.567Z,41.70
2018-02-19T17:09:26.131Z,35.10
2018-02-19T17:11:53.708Z,38.17
2018-02-19T17:14:21.211Z,43.13
2018-02-19T17:16:48.724Z,39.80
2018-02-19T17:19:16.288Z,38.83
2018-02-19T17:21:43.796Z,40.70
2018-02-19T17:24:11.389Z,38.80
2018-02-19T17:26:38.900Z,41.63
2018-02-19T17:29:06.423Z,37.33
2018-02-19T17:31:33.942Z,43.73
2018-02-19T17:34:01.433Z,40.33
2018-02-19T17:36:28.950Z,39.97
2018-02-19T17:38:57.045Z,38.40
2018-02-19T17:41:24.591Z,41.77
2018-02-19T17:43:52.200Z,41.23
2018-02-19T17:46:19.724Z,41.87
2018-02-19T17:48:47.299Z,40.00
2018-02-19T17:51:14.847Z,43.93
2018-02-19T17:53:42.424Z,38.27
2018-02-19T17:56:09.924Z,43.27
2018-02-19T17:58:37.533Z,40.80
2018-02-19T18:01:05.096Z,42.13
2018-02-19T18:03:32.650Z,41.60
2018-02-19T18:06:00.143Z,52.50
2018-02-19T18:08:27.654Z,43.70
2018-02-19T18:10:55.140Z,43.83
2018-02-19T18:13:22.648Z,39.27
2018-02-19T18:15:50.264Z,40.23
2018-02-19T18:18:17.832Z,39.00
2018-02-19T18:20:45.367Z,37.27
2018-02-19T18:23:12.928Z,38.27
2018-02-19T18:25:40.528Z,38.83
2018-02-19T18:28:08.076Z,39.10
2018-02-19T18:30:35.575Z,37.40
2018-02-19T18:33:03.111Z,42.77
2018-02-19T18:35:30.664Z,49.27
2018-02-19T18:37:58.184Z,46.30
2018-02-19T18:40:25.723Z,47.30
2018-02-19T18:42:53.235Z,76.43
2018-02-19T18:45:21.668Z,81.80
2018-02-19T18:47:49.247Z,44.90
2018-02-19T18:50:16.776Z,49.70
2018-02-19T18:52:44.296Z,38.27
2018-02-19T18:55:11.820Z,46.10
2018-02-19T18:57:39.358Z,45.50
2018-02-19T19:00:06.927Z,43.33
2018-02-19T19:02:34.479Z,45.97
2018-02-19T19:05:01.987Z,45.70
2018-02-19T19:07:41.677Z,48.10
2018-02-19T19:10:21.147Z,46.20
2018-02-19T19:12:48.704Z,43.20
2018-02-19T19:15:16.267Z,43.73
2018-02-19T19:17:43.772Z,44.80
2018-02-19T19:20:11.264Z,39.23
2018-02-19T19:22:38.780Z,44.87
2018-02-19T19:25:06.267Z,42.00
2018-02-19T19:27:33.805Z,40.73
2018-02-19T19:30:01.412Z,44.27
2018-02-19T19:32:28.952Z,47.40
2018-02-19T19:34:56.477Z,88.50
2018-02-19T19:37:23.992Z,59.47
2018-02-19T19:39:51.548Z,48.90
2018-02-19T19:42:19.043Z,48.33
2018-02-19T19:44:46.562Z,47.67
2018-02-19T19:47:14.048Z,47.83
2018-02-19T19:49:41.587Z,47.07
2018-02-19T19:52:09.093Z,42.10
2018-02-19T19:54:36.611Z,41.50
2018-02-19T19:57:04.120Z,50.43
2018-02-19T19:59:31.643Z,46.83
2018-02-19T20:01:59.175Z,44.70
2018-02-19T20:04:26.691Z,43.63
2018-02-19T20:06:54.191Z,47.07
2018-02-19T20:09:21.716Z,44.07
2018-02-19T20:11:49.948Z,42.40
2018-02-19T20:14:17.469Z,46.30
2018-02-19T20:16:45.168Z,44.07
2018-02-19T20:19:12.699Z,47.47
2018-02-19T20:21:40.196Z,44.63
2018-02-19T20:24:07.720Z,44.50
2018-02-19T20:26:35.213Z,43.43
2018-02-19T20:29:02.736Z,40.17
2018-02-19T20:31:30.229Z,44.73
2018-02-19T20:33:57.758Z,41.43
2018-02-19T20:36:25.256Z,45.47
2018-02-19T20:38:52.780Z,39.80
2018-02-19T20:41:20.353Z,38.93
2018-02-19T20:43:47.868Z,44.83
2018-02-19T20:46:15.363Z,45.27
2018-02-19T20:48:42.927Z,42.23
2018-02-19T20:51:10.497Z,43.70
2018-02-19T20:53:38.039Z,44.87
2018-02-19T20:56:05.540Z,40.67
2018-02-19T20:58:33.056Z,38.10
2018-02-19T21:01:00.624Z,44.00
2018-02-19T21:03:28.147Z,46.93
2018-02-19T21:05:55.643Z,43.80
2018-02-19T21:08:23.359Z,45.70
2018-02-19T21:10:50.864Z,45.03
2018-02-19T21:13:18.385Z,45.30
2018-02-19T21:15:46.244Z,43.83
2018-02-19T21:18:13.750Z,43.03
2018-02-19T21:20:41.339Z,42.30
2018-02-19T21:23:08.828Z,38.13
2018-02-19T21:25:36.350Z,39.17
2018-02-19T21:28:03.849Z,38.90
2018-02-19T21:30:31.736Z,41.33
2018-02-19T21:32:59.304Z,39.30
2018-02-19T21:35:26.812Z,45.13
2018-02-19T21:37:54.319Z,46.17
2018-02-19T21:40:21.896Z,48.13
2018-02-19T21:42:49.383Z,44.17
2018-02-19T21:45:16.928Z,41.43
2018-02-19T21:47:44.526Z,42.10
2018-02-19T21:50:12.115Z,40.70
2018-02-19T21:52:39.604Z,44.37
2018-02-19T21:55:07.124Z,43.03
2018-02-19T21:57:34.616Z,46.73
2018-02-19T22:00:02.147Z,131.17
2018-02-19T22:02:29.651Z,91.20
2018-02-19T22:04:57.172Z,211.00
2018-02-19T22:07:25.924Z,149.83
2018-02-19T22:09:53.619Z,135.23
2018-02-19T22:12:21.179Z,166.43
2018-02-19T22:14:48.705Z,103.80
2018-02-19T22:17:16.198Z,78.97
2018-02-19T22:19:43.712Z,50.17
2018-02-19T22:22:11.208Z,51.43
2018-02-19T22:24:38.718Z,44.40
2018-02-19T22:27:06.236Z,42.47
2018-02-19T22:29:33.792Z,39.50
2018-02-19T22:32:01.283Z,46.83
2018-02-19T22:34:28.804Z,40.97
2018-02-19T22:36:56.367Z,39.17
2018-02-19T22:39:23.923Z,41.60
2018-02-19T22:41:51.488Z,49.20
2018-02-19T22:44:19.064Z,44.73
2018-02-19T22:46:46.612Z,46.03
2018-02-19T22:49:14.240Z,67.53
2018-02-19T22:51:41.824Z,93.53
2018-02-19T22:54:09.334Z,44.57
2018-02-19T22:56:36.947Z,148.93
2018-02-19T22:59:04.510Z,415.93
2018-02-19T23:01:32.067Z,79.97
2018-02-19T23:03:59.558Z,49.23
2018-02-19T23:06:27.205Z,54.73
2018-02-19T23:08:54.691Z,51.20
2018-02-19T23:11:22.208Z,45.23
2018-02-19T23:13:49.700Z,43.30
2018-02-19T23:16:17.212Z,50.93
2018-02-19T23:18:44.699Z,64.43
2018-02-19T23:21:12.228Z,39.97
2018-02-19T23:23:39.712Z,44.13
2018-02-19T23:26:07.223Z,45.23
2018-02-19T23:28:34.708Z,41.00
2018-02-19T23:31:02.217Z,38.20
2018-02-19T23:33:29.715Z,37.50
2018-02-19T23:35:57.241Z,39.63
2018-02-19T23:38:24.728Z,40.30
2018-02-19T23:40:52.255Z,39.07
2018-02-19T23:43:19.743Z,38.57
2018-02-19T23:45:47.256Z,37.80
2018-02-19T23:48:14.772Z,36.00
2018-02-19T23:50:42.287Z,36.07
2018-02-19T23:53:09.792Z,33.73
2018-02-19T23:55:37.303Z,36.97
2018-02-19T23:58:04.800Z,33.90
